Time;durP1;ratioP1;P1;durP2;ratioP2;P2;SDS_P1;SDS_P2;PMS_P1;PMS_P2;Temp;Humidity;BMP_temperature;BMP_pressure;BME280_temperature;BME280_humidity;BME280_pressure;Samples;Min_cycle;Max_cycle;Signal;HPM_P1;HPM_P2
2023/06/01 00:00:31;;;;;;;16.70;8.35;;;;;;;;;;5025820;28;20221;-68
2023/06/01 00:02:56;;;;;;;14.93;7.97;;;;;;;;;;5041565;28;20186;-67
2023/06/01 00:05:21;;;;;;;16.52;9.10;;;;;;;;;;5039457;28;20209;-69
2023/06/01 00:07:47;;;;;;;17.30;8.25;;;;;;;;;;5041785;28;20186;-68
2023/06/01 00:10:13;;;;;;;14.88;8.32;;;;;;;;;;5040684;28;20238;-69
2023/06/01 00:12:38;;;;;;;16.05;8.50;;;;;;;;;;5027983;28;20202;-67
2023/06/01 00:15:04;;;;;;;13.30;8.18;;;;;;;;;;5028884;28;20309;-68
2023/06/01 00:17:30;;;;;;;16.67;8.60;;;;;;;;;;5040464;28;20231;-69
2023/06/01 00:19:56;;;;;;;17.60;8.80;;;;;;;;;;5033329;28;20201;-69
2023/06/01 00:22:23;;;;;;;18.17;8.48;;;;;;;;;;5030190;28;20198;-68
2023/06/01 00:24:50;;;;;;;19.00;8.30;;;;;;;;;;5031149;28;20189;-67
2023/06/01 00:27:15;;;;;;;16.50;8.55;;;;;;;;;;5021168;28;20279;-70
2023/06/01 00:29:40;;;;;;;16.45;8.55;;;;;;;;;;5025118;28;20677;-69
2023/06/01 00:32:06;;;;;;;13.82;8.02;;;;;;;;;;5046000;28;20190;-70
2023/06/01 00:34:32;;;;;;;15.82;8.85;;;;;;;;;;5039184;28;20217;-69
2023/06/01 00:36:57;;;;;;;14.73;8.48;;;;;;;;;;5031334;28;20268;-70
2023/06/01 00:39:22;;;;;;;15.70;7.95;;;;;;;;;;5031306;28;20682;-71
2023/06/01 00:41:48;;;;;;;14.05;8.68;;;;;;;;;;5022489;28;20197;-69
2023/06/01 00:44:13;;;;;;;12.90;8.52;;;;;;;;;;5031349;28;20218;-68
2023/06/01 00:46:39;;;;;;;13.93;8.13;;;;;;;;;;5041375;28;20193;-68
2023/06/01 00:49:05;;;;;;;19.83;9.68;;;;;;;;;;5050656;28;20211;-70
2023/06/01 00:51:32;;;;;;;15.20;9.48;;;;;;;;;;5046423;28;20454;-67
2023/06/01 00:53:58;;;;;;;19.13;9.52;;;;;;;;;;5035692;28;20286;-67
2023/06/01 00:56:23;;;;;;;16.17;8.95;;;;;;;;;;5029719;28;20297;-67
2023/06/01 00:58:49;;;;;;;16.80;9.43;;;;;;;;;;5029520;28;20190;-68
2023/06/01 01:01:22;;;;;;;18.52;9.07;;;;;;;;;;5023778;28;20216;-68
2023/06/01 01:03:49;;;;;;;19.33;9.07;;;;;;;;;;5023690;28;20664;-69
2023/06/01 01:06:36;;;;;;;17.08;9.38;;;;;;;;;;5020006;28;20187;-69
2023/06/01 01:09:14;;;;;;;17.38;9.32;;;;;;;;;;5027487;28;20193;-67
2023/06/01 01:11:43;;;;;;;19.90;9.35;;;;;;;;;;5027584;28;20502;-67
2023/06/01 01:14:19;;;;;;;25.20;9.75;;;;;;;;;;5023014;28;20596;-67
2023/06/01 01:17:13;;;;;;;17.30;8.93;;;;;;;;;;5021583;28;20194;-68
2023/06/01 01:19:58;;;;;;;17.73;8.68;;;;;;;;;;5016138;28;20288;-68
2023/06/01 01:22:38;;;;;;;14.48;8.15;;;;;;;;;;5027609;28;20275;-67
2023/06/01 01:25:21;;;;;;;17.15;8.02;;;;;;;;;;5027736;28;20186;-69
2023/06/01 01:27:59;;;;;;;20.58;8.32;;;;;;;;;;5018688;28;20198;-69
2023/06/01 01:30:28;;;;;;;17.45;8.55;;;;;;;;;;5037289;28;20197;-69
2023/06/01 01:32:55;;;;;;;15.60;8.25;;;;;;;;;;5042295;28;20185;-70
2023/06/01 01:35:23;;;;;;;18.27;8.52;;;;;;;;;;5029024;28;20217;-68
2023/06/01 01:37:55;;;;;;;18.25;8.15;;;;;;;;;;5034087;28;20638;-68
2023/06/01 01:40:21;;;;;;;14.98;7.93;;;;;;;;;;5026716;28;20233;-70
2023/06/01 01:42:48;;;;;;;17.80;8.38;;;;;;;;;;5043066;28;20251;-69
2023/06/01 01:45:15;;;;;;;21.08;9.35;;;;;;;;;;5025297;28;20190;-68
2023/06/01 01:47:46;;;;;;;16.90;8.45;;;;;;;;;;5029259;28;20530;-66
2023/06/01 01:50:13;;;;;;;19.70;8.63;;;;;;;;;;5015923;28;20213;-68
2023/06/01 01:52:41;;;;;;;16.63;8.27;;;;;;;;;;5024250;28;20269;-68
2023/06/01 01:55:11;;;;;;;15.70;8.35;;;;;;;;;;5029129;28;20213;-70
2023/06/01 01:57:39;;;;;;;17.27;8.48;;;;;;;;;;5022199;28;20652;-66
2023/06/01 02:00:07;;;;;;;19.35;8.00;;;;;;;;;;5025597;28;20194;-68
2023/06/01 02:02:32;;;;;;;17.52;8.10;;;;;;;;;;5025462;28;20541;-67
2023/06/01 02:04:58;;;;;;;19.17;8.23;;;;;;;;;;5028022;28;20189;-67
2023/06/01 02:07:23;;;;;;;17.77;8.43;;;;;;;;;;5033736;28;20199;-66
2023/06/01 02:09:49;;;;;;;17.15;7.55;;;;;;;;;;5030900;28;20678;-68
2023/06/01 02:12:14;;;;;;;16.67;7.97;;;;;;;;;;5027419;28;20320;-70
2023/06/01 02:14:40;;;;;;;17.40;7.95;;;;;;;;;;5027321;28;20210;-70
2023/06/01 02:17:07;;;;;;;16.38;7.45;;;;;;;;;;5030348;28;20535;-69
2023/06/01 02:19:32;;;;;;;19.60;7.85;;;;;;;;;;5026476;28;20185;-68
2023/06/01 02:21:58;;;;;;;18.23;8.18;;;;;;;;;;5027740;28;20723;-69
2023/06/01 02:24:23;;;;;;;22.10;7.30;;;;;;;;;;5023832;28;20183;-69
2023/06/01 02:26:51;;;;;;;17.73;8.07;;;;;;;;;;5026319;28;20198;-69
2023/06/01 02:29:19;;;;;;;17.50;7.63;;;;;;;;;;5026008;28;20194;-69
2023/06/01 02:31:45;;;;;;;21.08;7.88;;;;;;;;;;5032865;28;20200;-68
2023/06/01 02:34:10;;;;;;;22.02;8.10;;;;;;;;;;5028543;28;20205;-69
2023/06/01 02:36:36;;;;;;;22.75;7.72;;;;;;;;;;5029402;28;20498;-67
2023/06/01 02:39:01;;;;;;;16.05;7.93;;;;;;;;;;5041282;28;20331;-68
2023/06/01 02:41:26;;;;;;;13.50;7.95;;;;;;;;;;5025962;28;20705;-68
2023/06/01 02:43:52;;;;;;;13.45;7.43;;;;;;;;;;5024332;28;20218;-67
2023/06/01 02:46:18;;;;;;;18.40;7.50;;;;;;;;;;5022099;28;20225;-68
2023/06/01 02:48:44;;;;;;;19.83;7.97;;;;;;;;;;5034339;28;20202;-68
2023/06/01 02:51:10;;;;;;;19.17;7.88;;;;;;;;;;5024661;28;20650;-69
2023/06/01 02:53:35;;;;;;;18.38;7.40;;;;;;;;;;5025749;28;20273;-68
2023/06/01 02:56:01;;;;;;;18.50;7.38;;;;;;;;;;5034294;28;20732;-68
2023/06/01 02:58:29;;;;;;;16.58;7.25;;;;;;;;;;5031648;28;20490;-68
2023/06/01 03:00:55;;;;;;;16.98;7.38;;;;;;;;;;5032291;28;20205;-69
2023/06/01 03:03:20;;;;;;;18.15;7.18;;;;;;;;;;5032858;28;20649;-67
2023/06/01 03:05:47;;;;;;;18.70;7.78;;;;;;;;;;5030833;28;20190;-68
2023/06/01 03:08:13;;;;;;;17.17;7.43;;;;;;;;;;5029557;28;20186;-69
2023/06/01 03:10:39;;;;;;;19.95;8.25;;;;;;;;;;5039817;28;20217;-69
2023/06/01 03:13:04;;;;;;;18.48;8.85;;;;;;;;;;5034102;28;20277;-68
2023/06/01 03:15:30;;;;;;;17.45;7.70;;;;;;;;;;5025681;28;20213;-67
2023/06/01 03:17:55;;;;;;;15.48;7.47;;;;;;;;;;5026162;28;20452;-68
2023/06/01 03:20:20;;;;;;;17.23;8.13;;;;;;;;;;5028063;28;20193;-68
2023/06/01 03:22:46;;;;;;;18.23;7.95;;;;;;;;;;5023303;28;20190;-68
2023/06/01 03:25:12;;;;;;;16.35;7.47;;;;;;;;;;5027496;28;20185;-68
2023/06/01 03:27:41;;;;;;;18.15;7.55;;;;;;;;;;5027157;28;20186;-68
2023/06/01 03:30:09;;;;;;;16.40;8.13;;;;;;;;;;5023512;28;20591;-69
2023/06/01 03:32:42;;;;;;;15.73;8.68;;;;;;;;;;5026513;28;20606;-69
2023/06/01 03:35:08;;;;;;;18.90;7.60;;;;;;;;;;5026864;28;20217;-68
2023/06/01 03:37:35;;;;;;;18.10;7.88;;;;;;;;;;5029118;28;20190;-69
2023/06/01 03:40:01;;;;;;;18.27;7.68;;;;;;;;;;5029169;28;20234;-68
2023/06/01 03:42:26;;;;;;;21.05;8.32;;;;;;;;;;5027919;28;20196;-67
2023/06/01 03:44:52;;;;;;;16.17;7.53;;;;;;;;;;5028312;28;20190;-67
2023/06/01 03:47:17;;;;;;;18.20;7.35;;;;;;;;;;5025449;28;20666;-68
2023/06/01 03:49:43;;;;;;;19.83;7.50;;;;;;;;;;5035385;28;20545;-69
2023/06/01 03:52:08;;;;;;;19.73;8.27;;;;;;;;;;5029006;28;20252;-67
2023/06/01 03:54:34;;;;;;;14.02;7.15;;;;;;;;;;5031511;28;20212;-68
2023/06/01 03:57:00;;;;;;;18.27;7.57;;;;;;;;;;5040465;28;20198;-67
2023/06/01 03:59:26;;;;;;;20.77;7.15;;;;;;;;;;5044049;28;20189;-68
2023/06/01 04:01:51;;;;;;;14.50;7.55;;;;;;;;;;5029689;28;20217;-69
2023/06/01 04:04:20;;;;;;;15.35;6.97;;;;;;;;;;5014384;28;20191;-67
2023/06/01 04:06:46;;;;;;;18.25;7.25;;;;;;;;;;5024628;28;20540;-68
2023/06/01 04:09:11;;;;;;;15.68;7.60;;;;;;;;;;5043523;28;20357;-67
2023/06/01 04:11:38;;;;;;;16.92;7.63;;;;;;;;;;5048556;28;20300;-68
2023/06/01 04:14:04;;;;;;;14.32;6.93;;;;;;;;;;5040454;28;20197;-67
2023/06/01 04:16:30;;;;;;;14.73;6.38;;;;;;;;;;5030530;28;20226;-68
2023/06/01 04:18:55;;;;;;;18.83;7.90;;;;;;;;;;5023333;28;20502;-67
2023/06/01 04:21:21;;;;;;;17.55;7.70;;;;;;;;;;5017685;28;20232;-68
2023/06/01 04:23:47;;;;;;;17.48;7.32;;;;;;;;;;5025883;28;20189;-68
2023/06/01 04:26:12;;;;;;;22.17;7.95;;;;;;;;;;5048331;28;20258;-68
2023/06/01 04:28:43;;;;;;;16.85;8.30;;;;;;;;;;5017660;28;20190;-68
2023/06/01 04:31:16;;;;;;;18.00;7.53;;;;;;;;;;5024129;28;20575;-68
2023/06/01 04:33:44;;;;;;;13.80;6.50;;;;;;;;;;5027399;28;20190;-67
2023/06/01 04:36:12;;;;;;;17.88;7.13;;;;;;;;;;5024076;28;20356;-67
2023/06/01 04:38:41;;;;;;;14.63;7.38;;;;;;;;;;5025640;28;20189;-67
2023/06/01 04:41:09;;;;;;;16.40;7.57;;;;;;;;;;5035935;28;20258;-67
2023/06/01 04:43:36;;;;;;;17.52;8.10;;;;;;;;;;5027555;28;20186;-68
2023/06/01 04:46:04;;;;;;;17.48;7.93;;;;;;;;;;5030379;28;20210;-68
2023/06/01 04:48:31;;;;;;;15.57;6.97;;;;;;;;;;5022575;28;20223;-68
2023/06/01 04:50:57;;;;;;;20.08;7.70;;;;;;;;;;5026421;28;20696;-67
2023/06/01 04:53:23;;;;;;;18.98;7.65;;;;;;;;;;5028975;28;20222;-68
2023/06/01 04:55:48;;;;;;;16.15;7.25;;;;;;;;;;5025329;28;20252;-68
2023/06/01 04:58:15;;;;;;;13.57;6.55;;;;;;;;;;5030722;28;20834;-68
2023/06/01 05:00:40;;;;;;;19.70;7.47;;;;;;;;;;5028506;28;20202;-67
2023/06/01 05:03:05;;;;;;;16.05;7.35;;;;;;;;;;5019986;28;20464;-69
2023/06/01 05:05:31;;;;;;;13.95;7.35;;;;;;;;;;5018662;28;20197;-68
2023/06/01 05:07:56;;;;;;;14.85;7.10;;;;;;;;;;5020327;28;20197;-68
2023/06/01 05:10:21;;;;;;;18.85;7.15;;;;;;;;;;5028693;28;20729;-68
2023/06/01 05:12:47;;;;;;;17.85;7.47;;;;;;;;;;5033523;28;20186;-68
2023/06/01 05:15:13;;;;;;;17.40;6.72;;;;;;;;;;5024552;28;20213;-69
2023/06/01 05:17:38;;;;;;;15.75;6.80;;;;;;;;;;5021547;28;20582;-67
2023/06/01 05:20:05;;;;;;;19.65;6.95;;;;;;;;;;5031813;28;20378;-67
2023/06/01 05:22:30;;;;;;;18.98;7.70;;;;;;;;;;5030485;28;20266;-66
2023/06/01 05:24:57;;;;;;;14.75;6.70;;;;;;;;;;5029468;28;20274;-68
2023/06/01 05:27:22;;;;;;;18.45;8.10;;;;;;;;;;5026288;28;20681;-66
2023/06/01 05:29:48;;;;;;;15.23;6.85;;;;;;;;;;5028124;28;20182;-67
2023/06/01 05:32:13;;;;;;;18.13;7.70;;;;;;;;;;5021062;28;20190;-67
2023/06/01 05:34:39;;;;;;;15.65;7.13;;;;;;;;;;5027863;28;20998;-67
2023/06/01 05:37:04;;;;;;;14.40;7.10;;;;;;;;;;5021522;28;20190;-67
2023/06/01 05:39:30;;;;;;;17.95;7.32;;;;;;;;;;5025239;28;20600;-67
2023/06/01 05:41:55;;;;;;;15.07;7.22;;;;;;;;;;5021409;28;20186;-67
2023/06/01 05:44:21;;;;;;;16.98;6.90;;;;;;;;;;5026239;28;20201;-68
2023/06/01 05:46:47;;;;;;;14.52;6.72;;;;;;;;;;5018526;28;20197;-67
2023/06/01 05:49:12;;;;;;;16.77;6.78;;;;;;;;;;5023867;28;20198;-67
2023/06/01 05:51:40;;;;;;;16.23;6.70;;;;;;;;;;5024399;28;20355;-68
2023/06/01 05:54:05;;;;;;;17.25;7.22;;;;;;;;;;5025246;28;20221;-69
2023/06/01 05:56:31;;;;;;;13.75;6.45;;;;;;;;;;5032673;28;20249;-68
2023/06/01 05:58:56;;;;;;;17.02;6.88;;;;;;;;;;5031312;28;20209;-67
2023/06/01 06:01:22;;;;;;;14.32;5.63;;;;;;;;;;5036064;28;20221;-67
2023/06/01 06:03:48;;;;;;;13.48;6.47;;;;;;;;;;5022213;28;20222;-68
2023/06/01 06:06:13;;;;;;;15.65;6.25;;;;;;;;;;5036290;28;20196;-72
2023/06/01 06:08:38;;;;;;;17.65;6.65;;;;;;;;;;5037269;28;20611;-69
2023/06/01 06:11:04;;;;;;;15.70;6.45;;;;;;;;;;5029411;28;20202;-69
2023/06/01 06:13:30;;;;;;;18.02;6.40;;;;;;;;;;5022861;28;20194;-69
2023/06/01 06:15:55;;;;;;;16.73;6.70;;;;;;;;;;5016263;28;20241;-68
2023/06/01 06:18:21;;;;;;;10.75;5.72;;;;;;;;;;5022424;28;20192;-69
2023/06/01 06:20:47;;;;;;;16.45;6.07;;;;;;;;;;5023153;28;20275;-68
2023/06/01 06:23:12;;;;;;;12.20;6.43;;;;;;;;;;5015858;28;20505;-68
2023/06/01 06:25:40;;;;;;;15.25;6.07;;;;;;;;;;5007938;28;20269;-69
2023/06/01 06:28:05;;;;;;;15.07;6.35;;;;;;;;;;5020383;28;20617;-68
2023/06/01 06:30:31;;;;;;;12.13;5.82;;;;;;;;;;5025947;28;20193;-68
2023/06/01 06:32:56;;;;;;;11.80;6.15;;;;;;;;;;5015657;28;20728;-67
2023/06/01 06:35:21;;;;;;;14.45;6.35;;;;;;;;;;5037894;28;20214;-68
2023/06/01 06:37:47;;;;;;;12.00;6.43;;;;;;;;;;5023249;28;20857;-68
2023/06/01 06:40:12;;;;;;;13.18;6.25;;;;;;;;;;5028092;28;20234;-68
2023/06/01 06:42:38;;;;;;;13.65;6.15;;;;;;;;;;5039063;28;20198;-67
2023/06/01 06:45:04;;;;;;;12.05;5.68;;;;;;;;;;5017980;28;20190;-66
2023/06/01 06:47:30;;;;;;;15.60;6.63;;;;;;;;;;5014347;28;20193;-68
2023/06/01 06:49:55;;;;;;;13.38;5.90;;;;;;;;;;5054607;28;20652;-67
2023/06/01 06:52:21;;;;;;;15.23;6.15;;;;;;;;;;5043714;28;20198;-68
2023/06/01 06:54:46;;;;;;;13.10;5.90;;;;;;;;;;5033937;28;20202;-67
2023/06/01 06:57:12;;;;;;;11.85;5.32;;;;;;;;;;5031210;28;20224;-67
2023/06/01 06:59:37;;;;;;;14.38;5.72;;;;;;;;;;5025071;28;20664;-68
2023/06/01 07:02:03;;;;;;;13.65;6.13;;;;;;;;;;5027165;28;20213;-69
2023/06/01 07:04:29;;;;;;;7.95;5.65;;;;;;;;;;5033897;28;20186;-67
2023/06/01 07:06:55;;;;;;;10.60;5.85;;;;;;;;;;5035177;28;20186;-69
2023/06/01 07:09:21;;;;;;;11.63;5.82;;;;;;;;;;5045873;28;20189;-68
2023/06/01 07:11:47;;;;;;;13.25;5.70;;;;;;;;;;5028196;28;20186;-68
2023/06/01 07:14:13;;;;;;;9.88;5.55;;;;;;;;;;5022728;28;20183;-67
2023/06/01 07:16:39;;;;;;;16.92;6.20;;;;;;;;;;5033720;28;20597;-67
2023/06/01 07:19:05;;;;;;;9.52;5.10;;;;;;;;;;5034794;28;20209;-68
2023/06/01 07:21:30;;;;;;;11.80;4.90;;;;;;;;;;5030680;28;20193;-68
2023/06/01 07:23:56;;;;;;;10.63;4.90;;;;;;;;;;5044070;28;20201;-69
2023/06/01 07:26:25;;;;;;;9.23;4.80;;;;;;;;;;5042146;28;20197;-70
2023/06/01 07:28:52;;;;;;;12.98;5.22;;;;;;;;;;5015583;28;20190;-69
2023/06/01 07:31:18;;;;;;;9.13;4.63;;;;;;;;;;5021627;28;20186;-70
2023/06/01 07:33:44;;;;;;;11.00;5.53;;;;;;;;;;5022487;28;20201;-70
2023/06/01 07:36:09;;;;;;;13.52;4.90;;;;;;;;;;5019553;28;20704;-70
2023/06/01 07:38:35;;;;;;;11.55;4.85;;;;;;;;;;5015804;28;20200;-69
2023/06/01 07:41:01;;;;;;;17.15;5.95;;;;;;;;;;5019074;28;20726;-69
2023/06/01 07:43:26;;;;;;;10.35;4.97;;;;;;;;;;5017593;28;20188;-67
2023/06/01 07:45:52;;;;;;;11.43;5.53;;;;;;;;;;5025962;28;20710;-68
2023/06/01 07:48:17;;;;;;;15.25;5.55;;;;;;;;;;5022193;28;20241;-70
2023/06/01 07:50:43;;;;;;;11.40;5.18;;;;;;;;;;5025862;28;20248;-70
2023/06/01 07:53:09;;;;;;;12.43;5.60;;;;;;;;;;5023774;28;20503;-69
2023/06/01 07:55:34;;;;;;;12.73;5.60;;;;;;;;;;5034014;28;20212;-68
2023/06/01 07:57:59;;;;;;;11.20;5.50;;;;;;;;;;5046408;28;20230;-69
2023/06/01 08:00:26;;;;;;;10.55;5.60;;;;;;;;;;5037581;28;20612;-69
2023/06/01 08:02:52;;;;;;;13.15;5.93;;;;;;;;;;5026673;28;20192;-69
2023/06/01 08:05:18;;;;;;;10.82;5.95;;;;;;;;;;5041901;28;20201;-69
2023/06/01 08:07:45;;;;;;;11.73;5.95;;;;;;;;;;5035311;28;20569;-68
2023/06/01 08:10:13;;;;;;;15.25;5.78;;;;;;;;;;5035211;28;20197;-69
2023/06/01 08:12:39;;;;;;;13.13;5.50;;;;;;;;;;5046571;28;20208;-69
2023/06/01 08:15:05;;;;;;;14.98;6.10;;;;;;;;;;5032197;28;20201;-69
2023/06/01 08:17:31;;;;;;;15.10;6.25;;;;;;;;;;5036404;28;20258;-67
2023/06/01 08:19:56;;;;;;;17.30;5.82;;;;;;;;;;5013871;28;20198;-68
2023/06/01 08:22:23;;;;;;;16.58;6.43;;;;;;;;;;5027995;28;20190;-69
2023/06/01 08:24:48;;;;;;;12.95;5.57;;;;;;;;;;5028466;28;20190;-69
2023/06/01 08:27:18;;;;;;;15.05;6.68;;;;;;;;;;5027996;28;20271;-69
2023/06/01 08:29:48;;;;;;;17.90;5.97;;;;;;;;;;5021796;28;20263;-69
2023/06/01 08:32:14;;;;;;;12.50;6.15;;;;;;;;;;5024652;28;20532;-70
2023/06/01 08:34:40;;;;;;;13.00;6.18;;;;;;;;;;5027622;28;20210;-71
2023/06/01 08:37:05;;;;;;;17.35;6.15;;;;;;;;;;5033004;28;20190;-69
2023/06/01 08:39:30;;;;;;;11.45;5.20;;;;;;;;;;5046359;28;20284;-69
2023/06/01 08:42:26;;;;;;;10.43;5.38;;;;;;;;;;5042657;28;20183;-69
2023/06/01 08:44:55;;;;;;;8.55;5.13;;;;;;;;;;5025825;28;20187;-68
2023/06/01 08:47:21;;;;;;;8.98;5.20;;;;;;;;;;5037526;28;20186;-69
2023/06/01 08:49:48;;;;;;;13.05;5.88;;;;;;;;;;5033817;28;20615;-68
2023/06/01 08:52:22;;;;;;;9.20;5.35;;;;;;;;;;5029785;28;20276;-68
2023/06/01 08:54:47;;;;;;;12.50;5.60;;;;;;;;;;5039721;28;20210;-70
2023/06/01 08:57:13;;;;;;;10.65;5.03;;;;;;;;;;5032756;28;20192;-70
2023/06/01 08:59:39;;;;;;;9.50;4.97;;;;;;;;;;5046782;28;20195;-69
2023/06/01 09:02:05;;;;;;;9.07;5.07;;;;;;;;;;5037966;28;20284;-70
2023/06/01 09:04:35;;;;;;;10.38;4.97;;;;;;;;;;5040436;28;20194;-69
2023/06/01 09:07:01;;;;;;;10.88;5.20;;;;;;;;;;5037661;28;20201;-69
2023/06/01 09:09:26;;;;;;;8.82;4.30;;;;;;;;;;5033523;28;20190;-69
2023/06/01 09:12:20;;;;;;;9.10;4.35;;;;;;;;;;5037092;28;20254;-69
2023/06/01 09:14:46;;;;;;;10.32;4.68;;;;;;;;;;5043708;28;20224;-69
2023/06/01 09:17:21;;;;;;;11.60;4.97;;;;;;;;;;5050750;28;20181;-69
2023/06/01 09:19:46;;;;;;;10.95;4.60;;;;;;;;;;5035703;28;20395;-70
2023/06/01 09:22:12;;;;;;;8.43;5.00;;;;;;;;;;5034188;28;20729;-68
2023/06/01 09:24:38;;;;;;;11.50;4.88;;;;;;;;;;5040027;28;20182;-69
2023/06/01 09:27:03;;;;;;;12.15;5.32;;;;;;;;;;5027252;28;20186;-70
2023/06/01 09:29:29;;;;;;;11.38;5.35;;;;;;;;;;5035366;28;20255;-69
2023/06/01 09:31:55;;;;;;;11.00;4.97;;;;;;;;;;5026710;28;20186;-69
2023/06/01 09:34:21;;;;;;;14.90;5.32;;;;;;;;;;5031954;28;20201;-70
2023/06/01 09:36:52;;;;;;;13.45;5.18;;;;;;;;;;5031020;28;20194;-69
2023/06/01 09:39:20;;;;;;;10.23;4.90;;;;;;;;;;5026534;28;20284;-70
2023/06/01 09:41:54;;;;;;;9.68;4.75;;;;;;;;;;5026787;28;20191;-69
2023/06/01 09:44:27;;;;;;;10.32;4.85;;;;;;;;;;5026496;28;20223;-69
2023/06/01 09:47:03;;;;;;;13.57;5.35;;;;;;;;;;5021296;28;20183;-70
2023/06/01 09:49:33;;;;;;;8.30;4.20;;;;;;;;;;5033616;28;20194;-69
2023/06/01 09:52:05;;;;;;;11.05;5.15;;;;;;;;;;5027813;28;20190;-67
2023/06/01 09:54:34;;;;;;;11.52;4.93;;;;;;;;;;5031231;28;20266;-70
2023/06/01 09:57:01;;;;;;;9.93;5.38;;;;;;;;;;5031465;28;20221;-70
2023/06/01 09:59:28;;;;;;;7.72;5.10;;;;;;;;;;5030356;28;20736;-69
2023/06/01 10:01:55;;;;;;;6.47;4.60;;;;;;;;;;5033620;28;20211;-70
2023/06/01 10:04:28;;;;;;;7.57;4.53;;;;;;;;;;5021000;28;20194;-68
2023/06/01 10:06:56;;;;;;;8.77;5.00;;;;;;;;;;5026141;28;20191;-69
2023/06/01 10:09:24;;;;;;;8.73;4.90;;;;;;;;;;5042145;28;20391;-70
2023/06/01 10:11:53;;;;;;;9.70;4.78;;;;;;;;;;5016931;28;20186;-70
2023/06/01 10:14:22;;;;;;;8.20;4.95;;;;;;;;;;5027091;28;20190;-69
2023/06/01 10:16:51;;;;;;;10.63;4.97;;;;;;;;;;5043329;28;20229;-70
2023/06/01 10:19:17;;;;;;;9.57;5.07;;;;;;;;;;5031606;28;20187;-70
2023/06/01 10:21:45;;;;;;;12.57;6.22;;;;;;;;;;5032315;28;20189;-71
2023/06/01 10:24:11;;;;;;;9.45;5.07;;;;;;;;;;5029929;28;20186;-70
2023/06/01 10:27:01;;;;;;;10.02;4.93;;;;;;;;;;5021077;28;20643;-70
2023/06/01 10:29:29;;;;;;;11.65;5.20;;;;;;;;;;5013031;28;20191;-72
2023/06/01 10:31:55;;;;;;;10.63;4.68;;;;;;;;;;5030672;28;20182;-68
2023/06/01 10:34:39;;;;;;;7.22;4.25;;;;;;;;;;5031205;28;20190;-68
2023/06/01 10:37:04;;;;;;;9.45;4.45;;;;;;;;;;5028306;28;20563;-69
2023/06/01 10:39:31;;;;;;;10.60;5.18;;;;;;;;;;5029193;28;20233;-69
2023/06/01 10:42:18;;;;;;;11.50;5.15;;;;;;;;;;5023899;28;20916;-69
2023/06/01 10:44:44;;;;;;;12.23;5.43;;;;;;;;;;5025203;28;20194;-68
2023/06/01 10:47:12;;;;;;;11.82;5.10;;;;;;;;;;5024168;28;20200;-73
2023/06/01 10:49:47;;;;;;;10.20;4.65;;;;;;;;;;5027265;28;20495;-71
2023/06/01 10:52:35;;;;;;;11.65;5.05;;;;;;;;;;5031739;28;20197;-68
2023/06/01 10:55:07;;;;;;;11.43;5.00;;;;;;;;;;5028403;28;20248;-70
2023/06/01 10:57:33;;;;;;;7.68;4.50;;;;;;;;;;5024161;28;20193;-71
2023/06/01 11:00:19;;;;;;;11.77;4.85;;;;;;;;;;5031066;28;20532;-71
2023/06/01 11:03:02;;;;;;;11.18;5.45;;;;;;;;;;5016820;28;20288;-69
2023/06/01 11:05:39;;;;;;;10.45;4.60;;;;;;;;;;5032379;28;20269;-69
2023/06/01 11:08:06;;;;;;;9.82;4.75;;;;;;;;;;5035050;28;20181;-70
2023/06/01 11:10:50;;;;;;;9.02;4.63;;;;;;;;;;5045279;28;20189;-69
2023/06/01 11:13:19;;;;;;;9.75;4.35;;;;;;;;;;5040586;28;20256;-70
2023/06/01 11:16:10;;;;;;;7.10;4.18;;;;;;;;;;5038801;28;20205;-71
2023/06/01 11:18:49;;;;;;;8.63;4.35;;;;;;;;;;5014069;28;20220;-70
2023/06/01 11:21:23;;;;;;;10.20;3.85;;;;;;;;;;5028624;28;20212;-70
2023/06/01 11:23:49;;;;;;;8.50;4.32;;;;;;;;;;5015483;28;20511;-71
2023/06/01 11:26:16;;;;;;;6.88;3.83;;;;;;;;;;5041938;28;20193;-73
2023/06/01 11:28:42;;;;;;;7.72;3.80;;;;;;;;;;5036687;28;20189;-70
2023/06/01 11:31:12;;;;;;;6.38;3.78;;;;;;;;;;5042063;28;20193;-71
2023/06/01 11:33:42;;;;;;;9.65;3.95;;;;;;;;;;5034343;28;20185;-70
2023/06/01 11:36:10;;;;;;;5.97;3.85;;;;;;;;;;5031428;28;20206;-68
2023/06/01 11:38:43;;;;;;;6.30;3.55;;;;;;;;;;5023431;28;20246;-71
2023/06/01 11:41:09;;;;;;;7.63;3.70;;;;;;;;;;5031884;28;20830;-69
2023/06/01 11:43:34;;;;;;;5.50;3.17;;;;;;;;;;5019426;28;20213;-70
2023/06/01 11:46:04;;;;;;;5.80;2.88;;;;;;;;;;5014850;28;20269;-70
2023/06/01 11:48:30;;;;;;;5.53;2.85;;;;;;;;;;5008146;28;20265;-70
2023/06/01 11:50:56;;;;;;;4.97;2.83;;;;;;;;;;5020310;28;20619;-69
2023/06/01 11:53:23;;;;;;;5.60;2.50;;;;;;;;;;5028371;28;20645;-68
2023/06/01 11:55:53;;;;;;;5.68;2.78;;;;;;;;;;5035593;28;20261;-69
2023/06/01 11:58:25;;;;;;;4.05;2.42;;;;;;;;;;5032366;28;20213;-68
2023/06/01 12:00:51;;;;;;;2.97;2.45;;;;;;;;;;5027872;28;20273;-68
2023/06/01 12:03:17;;;;;;;3.67;2.20;;;;;;;;;;5008469;28;20264;-70
2023/06/01 12:05:44;;;;;;;4.38;2.30;;;;;;;;;;5017634;28;20193;-69
2023/06/01 12:08:13;;;;;;;4.57;2.58;;;;;;;;;;5026455;28;20701;-69
2023/06/01 12:10:41;;;;;;;8.77;2.97;;;;;;;;;;5022983;28;20217;-72
2023/06/01 12:13:07;;;;;;;5.78;2.55;;;;;;;;;;5038909;28;20197;-69
2023/06/01 12:15:32;;;;;;;4.40;2.70;;;;;;;;;;5025418;28;20210;-70
2023/06/01 12:17:58;;;;;;;3.15;2.70;;;;;;;;;;5028857;28;20186;-69
2023/06/01 12:20:27;;;;;;;3.85;2.67;;;;;;;;;;5013751;28;20190;-70
2023/06/01 12:22:55;;;;;;;5.28;2.67;;;;;;;;;;5022306;28;20309;-69
2023/06/01 12:25:23;;;;;;;8.30;2.97;;;;;;;;;;5030271;28;20229;-69
2023/06/01 12:28:11;;;;;;;4.70;2.88;;;;;;;;;;5026010;28;20241;-71
2023/06/01 12:30:36;;;;;;;3.53;2.80;;;;;;;;;;5017097;28;20186;-70
2023/06/01 12:33:04;;;;;;;6.13;2.92;;;;;;;;;;5026364;28;20305;-70
2023/06/01 12:35:30;;;;;;;3.47;2.60;;;;;;;;;;5024051;28;20245;-69
2023/06/01 12:38:06;;;;;;;4.68;2.97;;;;;;;;;;5034018;28;20185;-68
2023/06/01 12:40:33;;;;;;;5.43;2.92;;;;;;;;;;5032547;28;20225;-68
2023/06/01 12:42:59;;;;;;;4.90;2.45;;;;;;;;;;5028752;28;20182;-71
2023/06/01 12:45:24;;;;;;;5.32;2.85;;;;;;;;;;5022969;28;20642;-68
2023/06/01 12:47:50;;;;;;;3.60;2.53;;;;;;;;;;5026629;28;20186;-70
2023/06/01 12:50:16;;;;;;;7.60;3.10;;;;;;;;;;5037738;28;20206;-70
2023/06/01 12:52:42;;;;;;;5.20;3.25;;;;;;;;;;5023284;28;20551;-70
2023/06/01 12:55:08;;;;;;;8.27;3.72;;;;;;;;;;5025847;28;20214;-68
2023/06/01 12:57:36;;;;;;;6.03;3.30;;;;;;;;;;5045691;28;20192;-68
2023/06/01 13:00:04;;;;;;;8.20;3.50;;;;;;;;;;5025966;28;20277;-69
2023/06/01 13:02:30;;;;;;;6.57;3.90;;;;;;;;;;5025622;28;20240;-69
2023/06/01 13:04:57;;;;;;;8.93;3.53;;;;;;;;;;5023272;28;20182;-70
2023/06/01 13:07:23;;;;;;;10.80;3.88;;;;;;;;;;5030113;28;20204;-70
2023/06/01 13:09:49;;;;;;;7.40;4.90;;;;;;;;;;5029550;28;20462;-69
2023/06/01 13:12:14;;;;;;;10.15;4.38;;;;;;;;;;5043783;28;20728;-71
2023/06/01 13:14:40;;;;;;;7.55;3.88;;;;;;;;;;5024155;28;20284;-70
2023/06/01 13:17:05;;;;;;;6.05;4.22;;;;;;;;;;5029480;28;20204;-71
2023/06/01 13:19:31;;;;;;;7.05;4.43;;;;;;;;;;5020552;28;20191;-72
2023/06/01 13:21:57;;;;;;;10.05;4.72;;;;;;;;;;5024915;28;20240;-73
2023/06/01 13:24:22;;;;;;;10.82;4.82;;;;;;;;;;5028568;28;20190;-70
2023/06/01 13:26:48;;;;;;;7.30;4.20;;;;;;;;;;5025020;28;20538;-70
2023/06/01 13:29:13;;;;;;;6.07;4.40;;;;;;;;;;5021094;28;20189;-70
2023/06/01 13:31:39;;;;;;;8.05;4.45;;;;;;;;;;5028498;28;20289;-69
2023/06/01 13:34:04;;;;;;;7.90;3.88;;;;;;;;;;5021932;28;20230;-69
2023/06/01 13:36:30;;;;;;;7.00;3.63;;;;;;;;;;5022451;28;20230;-69
2023/06/01 13:38:56;;;;;;;7.63;3.67;;;;;;;;;;5032384;28;20197;-68
2023/06/01 13:41:21;;;;;;;6.13;3.58;;;;;;;;;;5028058;28;20713;-69
2023/06/01 13:43:47;;;;;;;8.57;4.00;;;;;;;;;;5024723;28;20215;-69
2023/06/01 13:46:12;;;;;;;8.18;3.40;;;;;;;;;;4334520;28;10000794;-70
2023/06/01 13:48:38;;;;;;;10.40;3.72;;;;;;;;;;5030242;28;20190;-69
2023/06/01 13:51:05;;;;;;;17.08;4.20;;;;;;;;;;5021459;28;20194;-69
2023/06/01 13:53:30;;;;;;;9.18;3.95;;;;;;;;;;5023403;28;20337;-69
2023/06/01 13:55:56;;;;;;;9.35;3.15;;;;;;;;;;5025304;28;20420;-72
2023/06/01 13:58:22;;;;;;;10.88;3.70;;;;;;;;;;5027323;28;20190;-71
2023/06/01 14:00:47;;;;;;;8.88;3.60;;;;;;;;;;5023860;28;20232;-71
2023/06/01 14:03:12;;;;;;;6.93;3.17;;;;;;;;;;5023162;28;20386;-68
2023/06/01 14:05:38;;;;;;;9.82;3.38;;;;;;;;;;5024164;28;20758;-70
2023/06/01 14:08:04;;;;;;;7.13;2.78;;;;;;;;;;5032414;28;20338;-73
2023/06/01 14:10:31;;;;;;;6.93;3.72;;;;;;;;;;5039742;28;20304;-72
2023/06/01 14:12:56;;;;;;;11.15;3.70;;;;;;;;;;5028407;28;20195;-71
2023/06/01 14:15:21;;;;;;;9.10;3.03;;;;;;;;;;5024069;28;20245;-71
2023/06/01 14:17:47;;;;;;;11.30;3.70;;;;;;;;;;5026000;28;20553;-70
2023/06/01 14:20:12;;;;;;;11.02;3.20;;;;;;;;;;5035606;28;20559;-68
2023/06/01 14:22:38;;;;;;;7.38;3.15;;;;;;;;;;5024586;28;20193;-68
2023/06/01 14:25:04;;;;;;;10.05;3.53;;;;;;;;;;5025523;28;20221;-69
2023/06/01 14:27:29;;;;;;;9.48;3.42;;;;;;;;;;5018791;28;20589;-70
2023/06/01 14:29:54;;;;;;;10.05;3.10;;;;;;;;;;5030475;28;20194;-70
2023/06/01 14:32:20;;;;;;;9.52;3.00;;;;;;;;;;5026128;28;20205;-69
2023/06/01 14:34:45;;;;;;;12.05;3.45;;;;;;;;;;5023408;28;20249;-68